Time;durP1;ratioP1;P1;durP2;ratioP2;P2;SDS_P1;SDS_P2;PMS_P1;PMS_P2;Temp;Humidity;BMP_temperature;BMP_pressure;BME280_temperature;BME280_humidity;BME280_pressure;Samples;Min_cycle;Max_cycle;Signal;HPM_P1;HPM_P2
2023/05/12 00:00:58;;;;;;;1.15;0.80;;;;;;;16.77;75.07;101036.28;5006725;28;20129;-58
2023/05/12 00:03:24;;;;;;;0.85;0.70;;;;;;;16.76;75.03;101037.44;5005729;28;20034;-59
2023/05/12 00:05:50;;;;;;;1.13;0.90;;;;;;;16.83;74.99;101029.28;5007800;28;20091;-59
2023/05/12 00:08:15;;;;;;;1.83;0.90;;;;;;;16.80;74.12;101022.66;5008703;28;20444;-57
2023/05/12 00:10:41;;;;;;;1.00;0.90;;;;;;;16.85;73.96;101030.47;5004489;28;20064;-55
2023/05/12 00:13:07;;;;;;;1.90;1.17;;;;;;;16.92;73.37;101026.94;5002123;28;20453;-59
2023/05/12 00:15:33;;;;;;;1.75;1.08;;;;;;;16.93;73.21;101028.53;5008964;28;20038;-59
2023/05/12 00:17:59;;;;;;;1.40;0.77;;;;;;;16.98;73.40;101030.84;5008634;28;20126;-59
2023/05/12 00:20:27;;;;;;;0.70;0.65;;;;;;;17.01;73.12;101032.81;5003808;28;20033;-59
2023/05/12 00:22:52;;;;;;;2.00;0.80;;;;;;;17.02;72.92;101037.06;5002583;28;20708;-59
2023/05/12 00:25:18;;;;;;;0.88;0.70;;;;;;;17.05;72.16;101028.91;5006833;28;20129;-60
2023/05/12 00:27:44;;;;;;;0.88;0.88;;;;;;;17.03;72.11;101042.13;5002031;28;20437;-59
2023/05/12 00:30:10;;;;;;;1.70;1.13;;;;;;;17.11;71.35;101032.78;5006215;28;20026;-57
2023/05/12 00:32:36;;;;;;;1.98;0.70;;;;;;;17.10;71.12;101041.34;5007621;28;20377;-57
2023/05/12 00:35:01;;;;;;;4.72;1.13;;;;;;;17.05;71.24;101034.34;5007201;28;20034;-58
2023/05/12 00:37:27;;;;;;;1.40;1.00;;;;;;;17.07;71.35;101040.19;5003829;28;20389;-57
2023/05/12 00:39:52;;;;;;;1.65;0.90;;;;;;;17.08;71.52;101043.69;4984731;28;20061;-54
2023/05/12 00:42:18;;;;;;;1.15;0.98;;;;;;;17.07;71.47;101042.16;5007386;28;20061;-57
2023/05/12 00:44:44;;;;;;;0.88;0.73;;;;;;;17.09;71.50;101034.38;4988991;28;20119;-58
2023/05/12 00:47:09;;;;;;;1.38;0.70;;;;;;;17.13;71.19;101043.28;4987155;28;20038;-58
2023/05/12 00:49:41;;;;;;;1.42;0.93;;;;;;;17.13;71.02;101037.84;5010468;28;20036;-55
2023/05/12 00:52:07;;;;;;;2.17;1.20;;;;;;;17.09;70.83;101042.53;5008502;28;20040;-59
2023/05/12 00:54:34;;;;;;;1.30;0.80;;;;;;;17.05;70.94;101033.59;5011719;28;20488;-57
2023/05/12 00:56:59;;;;;;;0.70;0.63;;;;;;;17.05;71.16;101039.03;5009367;28;20030;-55
2023/05/12 00:59:26;;;;;;;1.05;0.73;;;;;;;17.06;71.22;101043.28;4994030;28;20497;-55
2023/05/12 01:01:54;;;;;;;2.47;0.80;;;;;;;16.97;70.25;101040.97;5010955;28;20045;-55
2023/05/12 01:04:20;;;;;;;0.95;0.60;;;;;;;17.04;70.13;101040.97;5010373;28;20494;-58
2023/05/12 01:06:57;;;;;;;0.98;0.75;;;;;;;17.07;70.16;101042.16;4985712;28;20448;-59
2023/05/12 01:09:22;;;;;;;1.40;0.88;;;;;;;17.08;70.30;101047.19;4992763;28;20515;-58
2023/05/12 01:11:48;;;;;;;1.80;0.68;;;;;;;17.04;70.07;101045.63;4991737;28;20104;-59
2023/05/12 01:14:14;;;;;;;1.20;0.90;;;;;;;17.03;69.84;101041.38;4997499;28;20029;-57
2023/05/12 01:16:47;;;;;;;0.63;0.50;;;;;;;17.13;69.34;101044.06;4978376;28;20030;-59
2023/05/12 01:19:40;;;;;;;1.05;0.90;;;;;;;17.20;68.93;101047.97;4990032;28;20496;-58
2023/05/12 01:22:09;;;;;;;0.70;0.70;;;;;;;17.18;68.82;101045.63;5003000;28;20693;-60
2023/05/12 01:24:42;;;;;;;1.20;0.80;;;;;;;17.18;68.88;101056.53;5012261;28;20030;-58
2023/05/12 01:27:08;;;;;;;2.15;1.13;;;;;;;17.21;68.57;101054.97;5002241;28;20381;-59
2023/05/12 01:29:34;;;;;;;1.17;0.90;;;;;;;17.16;68.28;101056.13;4998759;28;20424;-60
2023/05/12 01:32:01;;;;;;;0.88;0.77;;;;;;;17.18;68.11;101059.25;5011658;28;20036;-60
2023/05/12 01:34:27;;;;;;;0.85;0.75;;;;;;;16.96;67.83;101055.72;5011271;28;20440;-60
2023/05/12 01:36:53;;;;;;;0.57;0.57;;;;;;;17.04;67.95;101067.41;4999217;22;20092;-65
2023/05/12 01:39:19;;;;;;;0.43;0.43;;;;;;;17.15;67.79;101066.22;4985195;28;20050;-66
2023/05/12 01:41:44;;;;;;;0.93;0.60;;;;;;;17.13;67.62;101063.13;4990869;28;20038;-66
2023/05/12 01:44:10;;;;;;;1.67;0.93;;;;;;;17.15;67.79;101068.16;4992809;28;20046;-65
2023/05/12 01:46:36;;;;;;;0.77;0.63;;;;;;;17.14;67.77;101072.88;4960153;28;20481;-66
2023/05/12 01:49:02;;;;;;;0.80;0.80;;;;;;;17.19;67.56;101068.94;4980868;28;20039;-66
2023/05/12 01:51:28;;;;;;;0.95;0.80;;;;;;;17.21;67.36;101074.78;4972107;28;20481;-65
2023/05/12 01:53:55;;;;;;;0.77;0.63;;;;;;;17.20;66.05;101075.19;4972346;28;20026;-65
2023/05/12 01:56:21;;;;;;;0.57;0.45;;;;;;;17.19;66.40;101065.47;4967186;28;20030;-67
2023/05/12 01:58:47;;;;;;;1.30;0.82;;;;;;;17.18;66.20;101070.13;4972792;28;20066;-66
2023/05/12 02:01:13;;;;;;;0.77;0.73;;;;;;;17.21;66.44;101079.47;4980867;28;20023;-64
2023/05/12 02:03:38;;;;;;;1.23;0.70;;;;;;;17.21;66.57;101080.22;4969896;28;20038;-65
2023/05/12 02:06:09;;;;;;;0.57;0.57;;;;;;;17.24;66.66;101082.19;4985957;28;20431;-65
2023/05/12 02:08:35;;;;;;;1.58;0.80;;;;;;;17.23;66.68;101077.91;4971924;28;20062;-64
2023/05/12 02:11:05;;;;;;;0.80;0.68;;;;;;;17.32;66.36;101082.97;4980340;28;20069;-65
2023/05/12 02:13:31;;;;;;;0.80;0.57;;;;;;;17.32;66.15;101091.13;4970891;28;20042;-64
2023/05/12 02:15:57;;;;;;;0.73;0.52;;;;;;;17.21;66.52;101082.94;4972002;28;20022;-65
2023/05/12 02:18:23;;;;;;;0.63;0.45;;;;;;;17.25;66.70;101091.91;4987738;28;20068;-65
2023/05/12 02:20:48;;;;;;;0.55;0.55;;;;;;;17.25;66.88;101096.59;4968401;28;20399;-65
2023/05/12 02:23:17;;;;;;;0.90;0.77;;;;;;;17.14;67.02;101083.75;4985719;28;20051;-65
2023/05/12 02:25:42;;;;;;;0.88;0.77;;;;;;;17.23;66.97;101088.78;4986912;28;20018;-64
2023/05/12 02:28:10;;;;;;;0.70;0.70;;;;;;;17.24;67.11;101090.38;4968273;28;20043;-66
2023/05/12 02:30:37;;;;;;;1.95;0.75;;;;;;;17.32;66.61;101093.84;4969633;28;20054;-66
2023/05/12 02:33:04;;;;;;;0.90;0.63;;;;;;;17.27;66.36;101088.78;4972416;28;20069;-65
2023/05/12 02:35:31;;;;;;;0.93;0.70;;;;;;;17.28;66.72;101093.88;4982977;28;20687;-65
2023/05/12 02:37:56;;;;;;;0.68;0.68;;;;;;;17.25;66.84;101091.16;4969624;28;20034;-67
2023/05/12 02:40:22;;;;;;;1.92;0.65;;;;;;;17.21;67.33;101099.28;4955983;28;20038;-67
2023/05/12 02:42:48;;;;;;;1.77;1.00;;;;;;;17.27;66.92;101097.75;4972166;28;20050;-65
2023/05/12 02:45:13;;;;;;;0.88;0.63;;;;;;;17.28;66.74;101091.16;4971770;28;20077;-65
2023/05/12 02:47:39;;;;;;;0.63;0.63;;;;;;;17.26;66.86;101095.41;4969009;28;20046;-65
2023/05/12 02:50:06;;;;;;;0.77;0.55;;;;;;;17.23;67.14;101085.31;4968785;28;20186;-65
2023/05/12 02:52:31;;;;;;;1.02;0.60;;;;;;;17.22;67.37;101081.81;4967599;28;20038;-65
2023/05/12 02:54:57;;;;;;;1.45;0.80;;;;;;;17.24;67.90;101090.38;4968087;28;20085;-67
2023/05/12 02:57:22;;;;;;;2.97;0.80;;;;;;;17.26;67.78;101093.47;4970457;28;20031;-66
2023/05/12 02:59:48;;;;;;;1.88;0.80;;;;;;;17.21;67.46;101102.00;4964285;28;20070;-68
2023/05/12 03:02:13;;;;;;;0.98;0.80;;;;;;;17.20;68.12;101092.31;4967581;28;20031;-65
2023/05/12 03:04:39;;;;;;;1.33;0.80;;;;;;;17.19;68.80;101096.19;4969156;28;20022;-65
2023/05/12 03:07:04;;;;;;;1.98;0.82;;;;;;;17.20;68.30;101103.19;4969996;28;20039;-65
2023/05/12 03:09:33;;;;;;;1.02;0.65;;;;;;;17.26;67.26;101096.19;4986794;28;20046;-65
2023/05/12 03:11:58;;;;;;;1.75;0.80;;;;;;;17.20;67.41;101100.47;4965094;28;20043;-65
2023/05/12 03:14:25;;;;;;;0.65;0.65;;;;;;;17.19;67.58;101098.91;4970756;28;20039;-67
2023/05/12 03:16:51;;;;;;;1.48;1.00;;;;;;;17.17;67.80;101099.28;4984341;28;20023;-65
2023/05/12 03:19:16;;;;;;;2.08;0.80;;;;;;;17.19;68.08;101100.88;4966455;28;20042;-65
2023/05/12 03:21:42;;;;;;;0.80;0.80;;;;;;;17.17;68.06;101104.75;4983865;28;20077;-66
2023/05/12 03:24:08;;;;;;;0.77;0.77;;;;;;;17.13;67.88;101103.94;4969955;28;20042;-64
2023/05/12 03:26:33;;;;;;;1.10;0.70;;;;;;;17.12;68.60;101101.63;4966001;28;20042;-64
2023/05/12 03:28:59;;;;;;;1.58;0.95;;;;;;;17.11;68.18;101109.00;4970465;28;20043;-63
2023/05/12 03:31:24;;;;;;;1.15;0.80;;;;;;;17.11;68.22;101108.25;4970520;28;20030;-65
2023/05/12 03:33:50;;;;;;;0.77;0.70;;;;;;;17.09;68.54;101105.13;4984046;28;20023;-64
2023/05/12 03:36:16;;;;;;;1.25;0.70;;;;;;;17.07;68.85;101108.22;4978315;28;20026;-64
2023/05/12 03:38:41;;;;;;;1.25;0.98;;;;;;;17.08;68.77;101111.72;4970091;28;20130;-64
2023/05/12 03:41:10;;;;;;;0.57;0.50;;;;;;;17.13;68.52;101114.06;4986171;28;20034;-65
2023/05/12 03:43:35;;;;;;;1.42;0.77;;;;;;;17.13;68.63;101116.78;4982672;28;20042;-63
2023/05/12 03:46:02;;;;;;;0.70;0.70;;;;;;;17.13;68.70;101122.22;4970018;28;20018;-64
2023/05/12 03:48:28;;;;;;;1.35;0.93;;;;;;;17.10;68.54;101118.34;4986278;28;20542;-65
2023/05/12 03:50:55;;;;;;;1.30;0.68;;;;;;;17.11;68.45;101117.16;4981896;28;20094;-65
2023/05/12 03:53:20;;;;;;;0.80;0.80;;;;;;;17.08;68.75;101115.25;4967855;28;20451;-68
2023/05/12 03:55:46;;;;;;;1.17;0.70;;;;;;;17.12;68.60;101117.97;4967624;28;20174;-66
2023/05/12 03:58:11;;;;;;;0.60;0.60;;;;;;;17.11;68.88;101119.13;4985999;28;20498;-66
2023/05/12 04:00:37;;;;;;;1.02;0.70;;;;;;;17.15;68.71;101117.97;4965170;28;20545;-65
2023/05/12 04:03:02;;;;;;;1.08;0.68;;;;;;;17.10;68.48;101120.28;4981837;28;20030;-66
2023/05/12 04:05:27;;;;;;;1.52;0.57;;;;;;;17.10;68.20;101120.28;4968116;28;20046;-66
2023/05/12 04:07:53;;;;;;;0.90;0.68;;;;;;;17.10;68.39;101125.72;4967029;28;20616;-64
2023/05/12 04:10:18;;;;;;;1.15;0.82;;;;;;;17.11;68.51;101122.63;4983901;28;20031;-65
2023/05/12 04:12:43;;;;;;;0.70;0.70;;;;;;;16.94;68.27;101123.38;4972949;28;20030;-65
2023/05/12 04:15:09;;;;;;;1.60;0.77;;;;;;;17.05;68.17;101123.41;4975979;28;20078;-65
2023/05/12 04:17:35;;;;;;;0.60;0.60;;;;;;;17.08;68.11;101130.78;4972486;28;20022;-67
2023/05/12 04:20:00;;;;;;;0.70;0.70;;;;;;;17.11;67.70;101132.75;4976606;28;20039;-66
2023/05/12 04:22:26;;;;;;;0.93;0.85;;;;;;;17.21;67.39;101133.94;4975168;28;20034;-65
2023/05/12 04:24:52;;;;;;;0.80;0.80;;;;;;;17.18;67.57;101143.63;4973782;28;20041;-65
2023/05/12 04:27:17;;;;;;;0.75;0.60;;;;;;;17.15;67.08;101136.22;4971966;28;20513;-65
2023/05/12 04:29:43;;;;;;;1.17;0.95;;;;;;;17.14;67.32;101140.13;4974992;28;20039;-66
2023/05/12 04:32:12;;;;;;;0.75;0.60;;;;;;;17.16;67.26;101140.53;4969332;28;20027;-65
2023/05/12 04:34:38;;;;;;;1.27;0.82;;;;;;;17.25;67.04;101143.63;4975358;28;20073;-65
2023/05/12 04:37:04;;;;;;;0.98;0.82;;;;;;;17.17;66.73;101159.19;4971107;28;20057;-65
2023/05/12 04:39:29;;;;;;;1.20;0.82;;;;;;;17.17;67.22;101156.47;4969701;28;20082;-66
2023/05/12 04:41:56;;;;;;;1.50;1.08;;;;;;;17.24;67.43;101158.44;4971066;28;20042;-65
2023/05/12 04:44:22;;;;;;;0.93;0.63;;;;;;;17.26;67.32;101156.09;4974980;28;20085;-65
2023/05/12 04:46:52;;;;;;;1.35;0.70;;;;;;;17.26;67.32;101158.81;4990855;28;20027;-67
2023/05/12 04:49:17;;;;;;;1.20;0.90;;;;;;;17.26;67.64;101166.19;4984726;28;20038;-67
2023/05/12 04:51:43;;;;;;;1.20;0.85;;;;;;;17.24;67.46;101166.59;4975522;28;20049;-65
2023/05/12 04:54:09;;;;;;;1.40;0.88;;;;;;;17.16;67.23;101165.03;4975652;28;20557;-65
2023/05/12 04:56:35;;;;;;;2.20;0.98;;;;;;;17.15;67.74;101166.16;4985891;28;20396;-66
2023/05/12 04:59:00;;;;;;;2.05;0.82;;;;;;;17.21;67.78;101172.78;4969694;28;20035;-66
2023/05/12 05:01:26;;;;;;;1.08;0.95;;;;;;;17.08;68.57;101169.66;4968409;28;20659;-67
2023/05/12 05:03:52;;;;;;;1.33;0.73;;;;;;;17.16;67.98;101184.06;4974881;28;20039;-65
2023/05/12 05:06:18;;;;;;;1.10;1.00;;;;;;;17.22;68.78;101179.81;4974657;28;20042;-66
2023/05/12 05:08:44;;;;;;;1.10;1.00;;;;;;;17.26;68.73;101177.88;4972926;28;20038;-66
2023/05/12 05:11:10;;;;;;;0.95;0.95;;;;;;;17.33;68.97;101180.59;4971272;28;20558;-65
2023/05/12 05:13:35;;;;;;;0.70;0.68;;;;;;;17.38;68.89;101182.94;4974242;28;20035;-65
2023/05/12 05:16:01;;;;;;;1.00;0.90;;;;;;;17.38;67.87;101182.94;4988463;28;20060;-65
2023/05/12 05:18:28;;;;;;;0.93;0.80;;;;;;;17.46;67.95;101191.91;4974828;28;20039;-66
2023/05/12 05:20:54;;;;;;;0.95;0.68;;;;;;;17.45;67.76;101182.16;4990858;28;20034;-65
2023/05/12 05:23:19;;;;;;;1.25;0.90;;;;;;;17.45;67.75;101191.13;4971049;28;20045;-66
2023/05/12 05:25:45;;;;;;;1.17;1.00;;;;;;;17.49;67.73;101202.84;4970883;28;20027;-66
2023/05/12 05:28:10;;;;;;;1.50;0.63;;;;;;;17.51;67.45;101200.50;4985953;28;20070;-67
2023/05/12 05:30:39;;;;;;;1.33;0.93;;;;;;;17.56;67.35;101197.38;4947586;28;20041;-67
2023/05/12 05:33:05;;;;;;;1.17;0.50;;;;;;;17.58;67.36;101203.22;4981510;28;20039;-66
2023/05/12 05:35:31;;;;;;;0.75;0.63;;;;;;;17.73;66.97;101206.75;4971454;28;20122;-65
2023/05/12 05:37:57;;;;;;;2.28;0.80;;;;;;;17.69;66.86;101212.16;4987005;28;20078;-68
2023/05/12 05:40:24;;;;;;;0.65;0.65;;;;;;;17.59;66.14;101212.19;4965246;28;20098;-65
2023/05/12 05:42:50;;;;;;;1.00;0.70;;;;;;;17.62;66.08;101212.16;4989133;28;20429;-66
2023/05/12 05:45:18;;;;;;;1.48;0.90;;;;;;;17.74;66.29;101211.00;4968921;28;20050;-66
2023/05/12 05:47:45;;;;;;;2.42;1.85;;;;;;;17.75;64.53;101213.34;4966665;28;20027;-66
2023/05/12 05:50:11;;;;;;;0.95;0.70;;;;;;;17.84;65.26;101219.19;4986713;28;20519;-66
2023/05/12 05:52:39;;;;;;;1.27;0.73;;;;;;;17.91;65.88;101215.66;4978246;28;20070;-66
2023/05/12 05:55:05;;;;;;;0.90;0.63;;;;;;;18.02;65.75;101216.47;4964233;28;20038;-66
2023/05/12 05:57:30;;;;;;;0.70;0.70;;;;;;;18.07;65.90;101226.97;4969691;28;20031;-66
2023/05/12 05:59:57;;;;;;;1.52;1.08;;;;;;;17.94;64.36;101226.56;4984568;28;20452;-66
2023/05/12 06:02:27;;;;;;;1.45;1.00;;;;;;;18.07;64.13;101231.63;4961818;28;20074;-66
2023/05/12 06:04:53;;;;;;;0.80;0.70;;;;;;;18.12;64.22;101220.34;4981400;28;20415;-66
2023/05/12 06:07:18;;;;;;;1.38;0.60;;;;;;;18.14;64.62;101237.09;4967052;28;20026;-67
2023/05/12 06:09:44;;;;;;;1.55;0.73;;;;;;;18.15;64.30;101233.97;4968826;28;20038;-66
2023/05/12 06:12:09;;;;;;;1.08;0.82;;;;;;;18.19;64.17;101242.13;4959269;28;20038;-67
2023/05/12 06:14:35;;;;;;;0.55;0.47;;;;;;;18.12;64.15;101244.88;4968634;28;20042;-67
2023/05/12 06:17:00;;;;;;;2.80;1.38;;;;;;;18.19;64.09;101244.88;4965640;28;20089;-66
2023/05/12 06:19:26;;;;;;;0.40;0.40;;;;;;;18.34;63.41;101254.56;4965573;28;20038;-66
2023/05/12 06:21:52;;;;;;;0.82;0.65;;;;;;;18.46;63.31;101249.53;4942794;28;20061;-66
2023/05/12 06:24:17;;;;;;;0.70;0.70;;;;;;;18.46;62.67;101254.19;4966116;28;20101;-65
2023/05/12 06:26:43;;;;;;;1.33;0.68;;;;;;;18.52;61.79;101255.38;4979661;28;20066;-66
2023/05/12 06:29:10;;;;;;;0.70;0.70;;;;;;;18.60;61.55;101256.91;4952506;28;20042;-65
2023/05/12 06:31:36;;;;;;;1.10;0.80;;;;;;;18.66;62.01;101255.34;4973247;28;20125;-66
2023/05/12 06:34:02;;;;;;;1.33;0.85;;;;;;;18.74;62.64;101262.31;4968522;28;20105;-66
2023/05/12 06:36:30;;;;;;;1.23;0.73;;;;;;;18.86;63.06;101259.16;4967662;28;20025;-68
2023/05/12 06:38:56;;;;;;;0.60;0.60;;;;;;;18.75;59.91;101263.88;4981895;28;20491;-67
2023/05/12 06:41:23;;;;;;;1.40;0.90;;;;;;;18.74;59.32;101271.28;4971104;28;20034;-67
2023/05/12 06:43:50;;;;;;;0.80;0.60;;;;;;;18.95;59.74;101269.66;4981069;28;20389;-66
2023/05/12 06:46:16;;;;;;;0.70;0.57;;;;;;;19.11;59.50;101273.47;4968852;28;20030;-67
2023/05/12 06:49:02;;;;;;;1.27;1.00;;;;;;;19.12;58.48;101269.59;4965911;28;20044;-68
2023/05/12 06:51:27;;;;;;;1.02;0.60;;;;;;;19.31;58.38;101273.78;4927604;29;20052;-66
2023/05/12 06:53:53;;;;;;;2.35;0.80;;;;;;;19.39;58.42;101273.38;4917825;29;20103;-66
2023/05/12 06:56:20;;;;;;;0.77;0.65;;;;;;;19.49;58.35;101272.50;4920340;29;20052;-66
2023/05/12 06:58:46;;;;;;;1.45;0.88;;;;;;;19.57;58.48;101268.56;4926198;29;20230;-66
2023/05/12 07:01:12;;;;;;;1.27;0.60;;;;;;;19.70;57.87;101277.06;4922261;29;20040;-68
2023/05/12 07:03:37;;;;;;;0.93;0.70;;;;;;;19.73;57.02;101271.59;4931202;29;20051;-68
2023/05/12 07:06:03;;;;;;;0.47;0.40;;;;;;;19.62;56.17;101275.56;4909442;29;20032;-65
2023/05/12 07:08:29;;;;;;;1.42;0.90;;;;;;;19.69;56.03;101273.56;4925342;29;20062;-67
2023/05/12 07:10:54;;;;;;;1.13;0.70;;;;;;;19.76;57.03;101276.22;4925330;29;20050;-68
2023/05/12 07:13:21;;;;;;;2.78;0.95;;;;;;;19.82;56.89;101273.88;4929944;29;20051;-68
2023/05/12 07:15:47;;;;;;;2.20;0.90;;;;;;;19.96;56.47;101281.16;4928302;29;20209;-67
2023/05/12 07:18:15;;;;;;;1.83;0.90;;;;;;;20.06;56.50;101285.78;4910241;29;20039;-67
2023/05/12 07:20:41;;;;;;;0.98;0.77;;;;;;;20.20;56.24;101288.44;4928846;29;20035;-65
2023/05/12 07:23:08;;;;;;;0.85;0.73;;;;;;;20.26;55.92;101297.75;4928688;29;20081;-66
2023/05/12 07:25:33;;;;;;;0.63;0.55;;;;;;;20.38;56.47;101295.28;4928738;29;20038;-67
2023/05/12 07:27:59;;;;;;;0.68;0.63;;;;;;;20.48;55.56;101299.09;4935032;28;20051;-67
2023/05/12 07:30:24;;;;;;;2.15;0.80;;;;;;;20.54;54.59;101302.94;4963417;28;20147;-66
2023/05/12 07:32:50;;;;;;;1.25;0.60;;;;;;;20.75;54.60;101302.72;4971704;28;20033;-68
2023/05/12 07:35:15;;;;;;;1.58;0.65;;;;;;;20.74;53.40;101297.66;4966712;28;20134;-65
2023/05/12 07:37:41;;;;;;;0.65;0.65;;;;;;;20.97;53.75;101306.78;4984598;23;20422;-66
2023/05/12 07:40:06;;;;;;;0.63;0.47;;;;;;;20.97;53.13;101293.09;4972793;28;20031;-64
2023/05/12 07:42:32;;;;;;;0.68;0.60;;;;;;;21.28;53.26;101300.16;4985888;28;20041;-64
2023/05/12 07:44:58;;;;;;;1.08;0.60;;;;;;;21.49;54.42;101299.88;4971219;28;20042;-65
2023/05/12 07:47:24;;;;;;;0.90;0.60;;;;;;;21.66;51.70;101300.03;4985880;28;20022;-65
2023/05/12 07:49:52;;;;;;;1.13;0.73;;;;;;;21.82;51.65;101302.94;4980471;28;20129;-65
2023/05/12 07:52:18;;;;;;;0.75;0.60;;;;;;;21.61;49.33;101303.25;4986964;28;20518;-65
2023/05/12 07:54:43;;;;;;;1.15;0.77;;;;;;;21.79;49.34;101301.81;4989764;28;20117;-65
2023/05/12 07:57:09;;;;;;;1.17;0.63;;;;;;;22.07;50.48;101300.59;4986863;28;20034;-65
2023/05/12 07:59:35;;;;;;;1.25;0.95;;;;;;;22.20;49.46;101304.31;4982944;28;20069;-66
2023/05/12 08:02:01;;;;;;;1.00;0.70;;;;;;;22.32;49.86;101300.94;4982873;28;20062;-65
2023/05/12 08:04:27;;;;;;;1.88;0.95;;;;;;;22.47;49.55;101299.53;4974555;28;20089;-64
2023/05/12 08:06:52;;;;;;;1.52;1.00;;;;;;;22.65;48.72;101308.22;4987629;28;20042;-64
2023/05/12 08:09:18;;;;;;;0.90;0.60;;;;;;;22.89;48.82;101314.44;4964984;28;20022;-65
2023/05/12 08:11:43;;;;;;;0.93;0.70;;;;;;;22.77;46.70;101309.56;4966941;28;20060;-64
2023/05/12 08:14:09;;;;;;;0.60;0.50;;;;;;;23.07;46.82;101304.63;4984940;28;20035;-65
2023/05/12 08:16:34;;;;;;;1.60;0.90;;;;;;;23.32;47.68;101309.66;4966694;28;20113;-65
2023/05/12 08:18:59;;;;;;;1.00;0.60;;;;;;;23.28;46.37;101304.22;4988346;28;20434;-65
2023/05/12 08:21:27;;;;;;;0.60;0.60;;;;;;;23.67;48.86;101302.59;4981376;28;20103;-65
2023/05/12 08:23:53;;;;;;;0.82;0.75;;;;;;;23.99;49.01;101303.38;4970461;28;20034;-65
2023/05/12 08:26:18;;;;;;;0.50;0.50;;;;;;;24.31;50.30;101299.88;4967565;28;20047;-66
2023/05/12 08:28:44;;;;;;;0.68;0.65;;;;;;;24.59;49.02;101296.34;4984986;28;20134;-66
2023/05/12 08:31:10;;;;;;;0.70;0.70;;;;;;;24.77;46.99;101310.47;4988729;28;20081;-65
2023/05/12 08:33:36;;;;;;;0.88;0.77;;;;;;;24.96;43.66;101303.25;4986307;28;20137;-66
2023/05/12 08:36:01;;;;;;;1.00;0.80;;;;;;;24.98;42.11;101309.88;4984484;28;20113;-66
2023/05/12 08:38:27;;;;;;;0.50;0.50;;;;;;;24.79;42.21;101305.28;4965882;28;20475;-67
2023/05/12 08:41:10;;;;;;;0.60;0.57;;;;;;;25.07;44.07;101302.94;4985978;28;20439;-67
2023/05/12 08:43:44;;;;;;;0.88;0.70;;;;;;;25.27;44.80;101311.78;4978036;28;20133;-64
2023/05/12 08:46:11;;;;;;;3.33;1.00;;;;;;;25.28;42.22;101314.09;4981929;28;20445;-64
2023/05/12 08:48:38;;;;;;;1.63;0.90;;;;;;;25.51;42.91;101305.53;4986539;28;20032;-65
2023/05/12 08:51:09;;;;;;;1.10;0.75;;;;;;;25.65;43.19;101312.63;4980341;28;20061;-66
2023/05/12 08:53:36;;;;;;;1.10;0.70;;;;;;;25.84;43.22;101308.88;4988448;28;20034;-66
2023/05/12 08:56:04;;;;;;;1.33;1.13;;;;;;;25.99;40.92;101309.19;4969910;28;20069;-66
2023/05/12 08:58:30;;;;;;;2.00;1.02;;;;;;;26.12;40.85;101310.72;4973841;28;20034;-66
2023/05/12 09:00:58;;;;;;;1.73;0.75;;;;;;;26.18;41.20;101308.19;4992110;28;20498;-66
2023/05/12 09:03:26;;;;;;;3.38;1.67;;;;;;;26.29;41.52;101303.84;4971485;28;20027;-66
2023/05/12 09:05:52;;;;;;;1.40;0.80;;;;;;;26.55;39.25;101308.06;4974910;28;20026;-65
2023/05/12 09:08:18;;;;;;;0.77;0.60;;;;;;;26.53;38.48;101306.97;4991709;28;20034;-66
2023/05/12 09:10:44;;;;;;;1.17;0.63;;;;;;;26.70;39.01;101311.91;4991173;28;20402;-66
2023/05/12 09:13:18;;;;;;;1.50;0.93;;;;;;;26.86;37.64;101307.41;4973209;28;20038;-66
2023/05/12 09:15:47;;;;;;;0.98;0.70;;;;;;;26.84;37.60;101307.06;4985884;28;20053;-65
2023/05/12 09:18:12;;;;;;;1.80;0.80;;;;;;;26.98;37.78;101306.56;4990733;28;20483;-65
2023/05/12 09:20:58;;;;;;;1.45;0.90;;;;;;;27.04;37.11;101315.81;4991257;28;20049;-65
2023/05/12 09:23:23;;;;;;;0.90;0.60;;;;;;;27.04;38.08;101308.28;4912260;29;20048;-65
2023/05/12 09:26:02;;;;;;;0.75;0.60;;;;;;;27.32;36.46;101314.75;4906765;29;20489;-66
2023/05/12 09:28:37;;;;;;;0.63;0.60;;;;;;;27.43;35.92;101312.38;4912159;29;20048;-65
2023/05/12 09:31:22;;;;;;;1.65;1.10;;;;;;;27.33;36.45;101310.81;4910629;29;20440;-66
2023/05/12 09:33:49;;;;;;;1.30;0.70;;;;;;;27.43;36.19;101312.38;4907308;29;20122;-65
2023/05/12 09:36:20;;;;;;;1.95;0.85;;;;;;;27.56;37.22;101310.28;4891508;29;20032;-65
2023/05/12 09:38:45;;;;;;;3.80;1.03;;;;;;;27.67;36.99;101302.31;4912152;29;20812;-65
2023/05/12 09:41:11;;;;;;;1.50;1.00;;;;;;;27.89;36.50;101310.56;4911458;29;20311;-65
2023/05/12 09:43:36;;;;;;;0.93;0.80;;;;;;;27.96;36.04;101310.28;4910250;29;20429;-65
2023/05/12 09:46:05;;;;;;;0.73;0.65;;;;;;;28.14;33.53;101310.31;4903482;29;20051;-65
2023/05/12 09:48:31;;;;;;;1.27;0.70;;;;;;;28.17;33.67;101321.25;4907422;29;20076;-65
2023/05/12 09:50:57;;;;;;;1.30;0.88;;;;;;;28.36;33.11;101313.72;4908714;29;20044;-66
2023/05/12 09:53:23;;;;;;;1.10;0.73;;;;;;;28.18;33.30;101316.50;4893802;29;20056;-65
2023/05/12 09:55:49;;;;;;;0.70;0.60;;;;;;;28.04;34.09;101317.06;4905617;29;20040;-65
2023/05/12 09:58:16;;;;;;;0.85;0.73;;;;;;;28.06;34.34;101307.09;4910499;29;20158;-66
2023/05/12 10:00:42;;;;;;;1.15;0.85;;;;;;;27.88;33.40;101307.00;4960821;28;20055;-65
2023/05/12 10:03:16;;;;;;;1.50;0.85;;;;;;;28.07;33.69;101303.06;4986095;28;20026;-66
2023/05/12 10:05:53;;;;;;;1.20;0.80;;;;;;;27.97;33.58;101303.53;4984571;28;20026;-65
2023/05/12 10:08:22;;;;;;;0.70;0.60;;;;;;;27.90;33.96;101301.00;4976587;28;20041;-65
2023/05/12 10:10:51;;;;;;;1.90;1.00;;;;;;;27.50;33.83;101307.34;4968441;28;20093;-65
2023/05/12 10:13:16;;;;;;;1.33;0.98;;;;;;;27.23;34.13;101303.63;4985035;28;20662;-65
2023/05/12 10:15:43;;;;;;;1.23;0.98;;;;;;;27.00;34.26;101304.91;4989062;28;20030;-65
2023/05/12 10:18:09;;;;;;;0.60;0.47;;;;;;;26.86;34.98;101310.16;4981637;28;20375;-65
2023/05/12 10:20:35;;;;;;;3.38;0.90;;;;;;;26.60;34.64;101306.69;4991149;28;20085;-65
2023/05/12 10:23:02;;;;;;;3.08;0.80;;;;;;;26.39;34.35;101302.69;4987197;28;20038;-65
2023/05/12 10:25:29;;;;;;;0.82;0.60;;;;;;;26.47;34.07;101306.00;4981367;28;20026;-65
2023/05/12 10:27:56;;;;;;;0.90;0.60;;;;;;;26.65;33.67;101304.13;4978353;28;20541;-65
2023/05/12 10:30:22;;;;;;;0.95;0.75;;;;;;;26.72;33.11;101306.69;4990406;28;20042;-65
2023/05/12 10:32:48;;;;;;;0.93;0.60;;;;;;;26.69;34.50;101299.25;4973793;28;20105;-66
2023/05/12 10:35:14;;;;;;;0.73;0.60;;;;;;;26.66;34.35;101300.16;4987437;28;20042;-65
2023/05/12 10:37:41;;;;;;;1.15;0.68;;;;;;;26.72;34.93;101294.84;4978157;28;20037;-65
2023/05/12 10:40:09;;;;;;;0.60;0.50;;;;;;;26.83;34.85;101302.78;4968637;28;20046;-66
2023/05/12 10:42:40;;;;;;;0.90;0.52;;;;;;;27.04;32.10;101304.75;4985724;28;20042;-65
2023/05/12 10:45:16;;;;;;;0.65;0.50;;;;;;;26.91;32.56;101298.50;4984742;28;20682;-65
2023/05/12 10:47:42;;;;;;;0.63;0.50;;;;;;;26.80;33.82;101296.16;4989674;28;20027;-65
2023/05/12 10:50:08;;;;;;;0.98;0.65;;;;;;;27.06;34.93;101297.53;4988108;28;20081;-66
2023/05/12 10:52:33;;;;;;;0.52;0.52;;;;;;;27.48;33.99;101297.94;4987217;28;20030;-65
2023/05/12 10:55:00;;;;;;;0.50;0.50;;;;;;;27.84;33.75;101300.84;4966001;28;20038;-66
2023/05/12 10:57:27;;;;;;;0.95;0.50;;;;;;;27.82;32.42;101292.22;4986362;28;21056;-66
2023/05/12 10:59:58;;;;;;;0.63;0.50;;;;;;;27.76;31.67;101293.28;4983680;28;20096;-65
2023/05/12 11:02:28;;;;;;;0.93;0.60;;;;;;;27.99;32.47;101307.34;4988079;28;20072;-66
2023/05/12 11:04:57;;;;;;;0.70;0.47;;;;;;;28.02;32.80;101291.81;4981176;28;20087;-66
2023/05/12 11:07:28;;;;;;;0.93;0.55;;;;;;;28.00;33.54;101310.91;4983988;28;20558;-66
2023/05/12 11:09:55;;;;;;;1.00;0.60;;;;;;;27.90;32.27;101304.53;4983255;28;20476;-66
2023/05/12 11:12:21;;;;;;;1.88;0.77;;;;;;;28.00;33.82;101305.38;4980205;28;20041;-66
2023/05/12 11:14:47;;;;;;;1.00;0.82;;;;;;;28.04;33.70;101295.69;4986256;28;20038;-70
2023/05/12 11:17:13;;;;;;;2.28;0.60;;;;;;;28.02;34.04;101295.38;4985828;28;20104;-66
2023/05/12 11:19:45;;;;;;;1.23;0.90;;;;;;;27.92;33.89;101293.78;4983699;28;20096;-66
2023/05/12 11:22:31;;;;;;;0.60;0.47;;;;;;;27.56;33.13;101310.28;4984017;28;20034;-66